Hummelstown, PA (17036)

7:35 PM EST on December 18, 2014 (GMT -0500)
DTPD | Change Station
CLOSE
Current Station
Personal Weather Station
Location: Hershey, PA
Elevation: 357 ft
Nearby Weather Stations

Elev 357 ft 40.28 °N, 76.68 °W | Updated 1 minute ago

Overcast
Overcast
36.1 °F
Feels Like 32 °F
N
5.4
Wind Variable Wind from North
Gusts 10.0 mph

Today
High -- | Low -- °F
--% Chance of Precip.
Yesterday
High -- | Low -- °F
Precip. -- in
7:24 AM 4:42 PM
Waning Crescent, 11% visible
Pressure 30.08 in
Visibility 10.0 miles
Clouds Overcast 3100 ft
Windchill 32 °F
Dew Point 27 °F
Humidity 70%
Rainfall 29.94 in
Snow Depth Not available.
UV 0 out of 12
Pollen .10 out of 12
Air Quality Not available.
Flu Activity Not available.
METAR KMDT 182356Z 33009KT 10SM OVC031 02/M05 A3006 RMK AO2 SLP185 T00171050 10022 20017 58001

More Conditions Fewer Conditions

Pressure 30.08 in
Visibility 10.0 miles
Clouds Overcast 3100 ft
Windchill 32 °F
Dew Point 27 °F
Humidity 70%
Rainfall 29.94 in
Snow Depth Not available.
UV 0 out of 12
Pollen .10 out of 12
Air Quality Not available.
Flu Activity Not available.
METAR KMDT 182356Z 33009KT 10SM OVC031 02/M05 A3006 RMK AO2 SLP185 T00171050 10022 20017 58001

More Conditions Fewer Conditions

10-Day Weather Forecast

Almanac

Astronomy

Dec. 18, 2014 Rise Set
Actual Time
Civil Twilight
Nautical Twilight
Astronomical Twilight
Moon
Length of Visible Light
Length of Day
Tomorrow will be .
, % of the Moon is Illuminated

Today's Extremes

State Highs State Lows

Community

WunderPhotos

Upload Photos

1,779,016 photos uploaded!

WunderBlogs® & News

Nearby

Air Quality

  Air Quality AQ Index Pollutant
Not available.

Snow Depth

Station Depth Elevation

Earthquake Activity

City Distance Mag. Time & Date
Minimum magnitude displayed is 2.5.

Coastal Water Temperatures

Place Temperature

Nearby Weather Stations